sensor_id;sensor_type;location;lat;lon;timestamp;pressure;altitude;pressure_sealevel;temperature;humidity
49311;BME280;35177;45.900;5.946;2022-10-19T00:01:36;98338.63;;;9.32;100.00
49311;BME280;35177;45.900;5.946;2022-10-19T00:04:02;98335.50;;;9.44;100.00
49311;BME280;35177;45.900;5.946;2022-10-19T00:06:33;98333.59;;;9.39;100.00
49311;BME280;35177;45.900;5.946;2022-10-19T00:09:02;98335.00;;;9.71;100.00
49311;BME280;35177;45.900;5.946;2022-10-19T00:11:29;98341.22;;;9.87;100.00
49311;BME280;35177;45.900;5.946;2022-10-19T00:13:56;98342.91;;;9.83;100.00
49311;BME280;35177;45.900;5.946;2022-10-19T00:16:22;98340.47;;;9.76;100.00
49311;BME280;35177;45.900;5.946;2022-10-19T00:18:48;98334.97;;;9.42;100.00
49311;BME280;35177;45.900;5.946;2022-10-19T00:21:16;98346.59;;;9.44;100.00
49311;BME280;35177;45.900;5.946;2022-10-19T00:23:43;98336.66;;;9.67;100.00
49311;BME280;35177;45.900;5.946;2022-10-19T00:26:09;98338.81;;;9.46;100.00
49311;BME280;35177;45.900;5.946;2022-10-19T00:28:35;98341.97;;;9.34;100.00
49311;BME280;35177;45.900;5.946;2022-10-19T00:31:09;98337.78;;;9.31;100.00
49311;BME280;35177;45.900;5.946;2022-10-19T00:33:35;98329.56;;;9.56;100.00
49311;BME280;35177;45.900;5.946;2022-10-19T00:36:03;98332.66;;;9.54;100.00
49311;BME280;35177;45.900;5.946;2022-10-19T00:38:29;98337.03;;;9.26;100.00
49311;BME280;35177;45.900;5.946;2022-10-19T00:40:55;98341.22;;;9.23;100.00
49311;BME280;35177;45.900;5.946;2022-10-19T00:43:24;98346.28;;;9.11;100.00
49311;BME280;35177;45.900;5.946;2022-10-19T00:45:49;98343.16;;;9.18;100.00
49311;BME280;35177;45.900;5.946;2022-10-19T00:48:25;98338.47;;;9.18;100.00
49311;BME280;35177;45.900;5.946;2022-10-19T00:50:53;98332.44;;;9.06;100.00
49311;BME280;35177;45.900;5.946;2022-10-19T00:53:20;98333.75;;;9.19;100.00
49311;BME280;35177;45.900;5.946;2022-10-19T00:55:47;98327.41;;;9.13;100.00
49311;BME280;35177;45.900;5.946;2022-10-19T00:58:13;98318.69;;;8.95;100.00
49311;BME280;35177;45.900;5.946;2022-10-19T01:00:39;98324.34;;;9.20;100.00
49311;BME280;35177;45.900;5.946;2022-10-19T01:03:06;98331.28;;;9.17;100.00
49311;BME280;35177;45.900;5.946;2022-10-19T01:05:34;98329.81;;;9.25;100.00
49311;BME280;35177;45.900;5.946;2022-10-19T01:08:00;98334.25;;;9.26;100.00
49311;BME280;35177;45.900;5.946;2022-10-19T01:10:51;98333.72;;;9.24;100.00
49311;BME280;35177;45.900;5.946;2022-10-19T01:13:36;98338.19;;;9.20;100.00
49311;BME280;35177;45.900;5.946;2022-10-19T01:16:30;98335.91;;;9.27;100.00
49311;BME280;35177;45.900;5.946;2022-10-19T01:21:49;98337.53;;;9.33;100.00
49311;BME280;35177;45.900;5.946;2022-10-19T01:30:10;98331.59;;;9.10;100.00
49311;BME280;35177;45.900;5.946;2022-10-19T01:35:25;98331.50;;;8.81;100.00
49311;BME280;35177;45.900;5.946;2022-10-19T01:38:06;98331.53;;;8.76;100.00
49311;BME280;35177;45.900;5.946;2022-10-19T01:40:40;98328.56;;;8.62;100.00
49311;BME280;35177;45.900;5.946;2022-10-19T01:43:59;98327.44;;;8.68;100.00
49311;BME280;35177;45.900;5.946;2022-10-19T01:46:12;98332.50;;;8.50;100.00
49311;BME280;35177;45.900;5.946;2022-10-19T01:48:42;98323.91;;;8.52;100.00
49311;BME280;35177;45.900;5.946;2022-10-19T01:51:36;98323.63;;;8.54;100.00
49311;BME280;35177;45.900;5.946;2022-10-19T01:54:04;98319.41;;;8.61;100.00
49311;BME280;35177;45.900;5.946;2022-10-19T01:56:32;98316.31;;;8.73;100.00
49311;BME280;35177;45.900;5.946;2022-10-19T01:59:02;98318.03;;;8.69;100.00
49311;BME280;35177;45.900;5.946;2022-10-19T02:01:33;98321.03;;;8.73;100.00
49311;BME280;35177;45.900;5.946;2022-10-19T02:04:01;98312.19;;;8.71;100.00
49311;BME280;35177;45.900;5.946;2022-10-19T02:06:28;98312.81;;;8.57;100.00
49311;BME280;35177;45.900;5.946;2022-10-19T02:08:53;98303.28;;;8.79;100.00
49311;BME280;35177;45.900;5.946;2022-10-19T02:11:20;98309.16;;;8.67;100.00
49311;BME280;35177;45.900;5.946;2022-10-19T02:13:50;98302.81;;;8.66;100.00
49311;BME280;35177;45.900;5.946;2022-10-19T02:16:20;98308.06;;;8.68;100.00
49311;BME280;35177;45.900;5.946;2022-10-19T02:18:49;98306.06;;;8.79;100.00
49311;BME280;35177;45.900;5.946;2022-10-19T02:21:16;98289.41;;;8.84;100.00
49311;BME280;35177;45.900;5.946;2022-10-19T02:23:42;98296.63;;;8.80;100.00
49311;BME280;35177;45.900;5.946;2022-10-19T02:26:08;98288.84;;;8.87;100.00
49311;BME280;35177;45.900;5.946;2022-10-19T02:28:34;98287.94;;;8.52;100.00
49311;BME280;35177;45.900;5.946;2022-10-19T02:31:00;98276.00;;;8.62;100.00
49311;BME280;35177;45.900;5.946;2022-10-19T02:33:27;98280.16;;;8.54;100.00
49311;BME280;35177;45.900;5.946;2022-10-19T02:35:53;98271.34;;;8.42;100.00
49311;BME280;35177;45.900;5.946;2022-10-19T02:38:21;98277.25;;;8.30;100.00
49311;BME280;35177;45.900;5.946;2022-10-19T02:41:37;98277.75;;;8.32;100.00
49311;BME280;35177;45.900;5.946;2022-10-19T02:43:39;98276.78;;;8.07;100.00
49311;BME280;35177;45.900;5.946;2022-10-19T02:46:45;98268.22;;;8.09;100.00
49311;BME280;35177;45.900;5.946;2022-10-19T02:49:12;98258.22;;;8.18;100.00
49311;BME280;35177;45.900;5.946;2022-10-19T02:51:56;98265.69;;;8.17;100.00
49311;BME280;35177;45.900;5.946;2022-10-19T02:54:23;98256.81;;;8.20;100.00
49311;BME280;35177;45.900;5.946;2022-10-19T02:56:48;98267.84;;;8.26;100.00
49311;BME280;35177;45.900;5.946;2022-10-19T02:59:14;98259.53;;;8.31;100.00
49311;BME280;35177;45.900;5.946;2022-10-19T03:01:39;98259.84;;;8.24;100.00
49311;BME280;35177;45.900;5.946;2022-10-19T03:04:05;98259.03;;;8.24;100.00
49311;BME280;35177;45.900;5.946;2022-10-19T03:06:30;98257.06;;;8.24;100.00
49311;BME280;35177;45.900;5.946;2022-10-19T03:08:56;98257.59;;;8.31;100.00
49311;BME280;35177;45.900;5.946;2022-10-19T03:11:22;98257.66;;;8.16;100.00
49311;BME280;35177;45.900;5.946;2022-10-19T03:13:47;98250.66;;;8.34;100.00
49311;BME280;35177;45.900;5.946;2022-10-19T03:16:12;98257.25;;;8.48;100.00
49311;BME280;35177;45.900;5.946;2022-10-19T03:18:39;98259.19;;;8.43;100.00
49311;BME280;35177;45.900;5.946;2022-10-19T03:21:07;98259.00;;;8.29;100.00
49311;BME280;35177;45.900;5.946;2022-10-19T03:23:33;98248.50;;;8.20;100.00
49311;BME280;35177;45.900;5.946;2022-10-19T03:25:58;98245.19;;;8.18;100.00
49311;BME280;35177;45.900;5.946;2022-10-19T03:28:24;98242.97;;;8.20;100.00
49311;BME280;35177;45.900;5.946;2022-10-19T03:30:49;98241.06;;;8.16;100.00
49311;BME280;35177;45.900;5.946;2022-10-19T03:33:14;98246.84;;;8.19;100.00
49311;BME280;35177;45.900;5.946;2022-10-19T03:35:40;98246.94;;;8.04;100.00
49311;BME280;35177;45.900;5.946;2022-10-19T03:38:06;98251.16;;;7.81;100.00
49311;BME280;35177;45.900;5.946;2022-10-19T03:40:31;98246.19;;;7.83;100.00
49311;BME280;35177;45.900;5.946;2022-10-19T03:42:57;98249.28;;;7.66;100.00
49311;BME280;35177;45.900;5.946;2022-10-19T03:45:22;98261.13;;;7.82;100.00
49311;BME280;35177;45.900;5.946;2022-10-19T03:47:49;98255.06;;;7.75;100.00
49311;BME280;35177;45.900;5.946;2022-10-19T03:50:14;98245.41;;;7.72;100.00
49311;BME280;35177;45.900;5.946;2022-10-19T03:52:41;98246.16;;;7.88;100.00
49311;BME280;35177;45.900;5.946;2022-10-19T03:55:07;98247.53;;;7.91;100.00
49311;BME280;35177;45.900;5.946;2022-10-19T03:57:33;98243.84;;;8.11;100.00
49311;BME280;35177;45.900;5.946;2022-10-19T03:59:58;98246.28;;;8.28;100.00
49311;BME280;35177;45.900;5.946;2022-10-19T04:02:24;98248.59;;;8.05;100.00
49311;BME280;35177;45.900;5.946;2022-10-19T04:04:49;98252.81;;;7.87;100.00
49311;BME280;35177;45.900;5.946;2022-10-19T04:07:15;98249.19;;;7.92;100.00
49311;BME280;35177;45.900;5.946;2022-10-19T04:09:40;98250.06;;;7.82;100.00
49311;BME280;35177;45.900;5.946;2022-10-19T04:12:06;98250.06;;;7.77;100.00
49311;BME280;35177;45.900;5.946;2022-10-19T04:14:31;98249.88;;;7.52;100.00
49311;BME280;35177;45.900;5.946;2022-10-19T04:16:57;98242.94;;;7.55;100.00
49311;BME280;35177;45.900;5.946;2022-10-19T04:19:22;98251.78;;;7.62;100.00
49311;BME280;35177;45.900;5.946;2022-10-19T04:21:48;98249.00;;;7.52;100.00
49311;BME280;35177;45.900;5.946;2022-10-19T04:24:15;98253.72;;;7.51;100.00
49311;BME280;35177;45.900;5.946;2022-10-19T04:26:49;98246.53;;;7.50;100.00
49311;BME280;35177;45.900;5.946;2022-10-19T04:29:16;98247.09;;;7.52;100.00
49311;BME280;35177;45.900;5.946;2022-10-19T04:31:43;98256.69;;;7.70;100.00
49311;BME280;35177;45.900;5.946;2022-10-19T04:34:09;98258.97;;;7.53;100.00
49311;BME280;35177;45.900;5.946;2022-10-19T04:36:35;98256.75;;;7.60;100.00
49311;BME280;35177;45.900;5.946;2022-10-19T04:39:01;98249.03;;;7.47;100.00
49311;BME280;35177;45.900;5.946;2022-10-19T04:41:26;98242.38;;;7.58;100.00
49311;BME280;35177;45.900;5.946;2022-10-19T04:43:56;98234.94;;;7.48;100.00
49311;BME280;35177;45.900;5.946;2022-10-19T04:46:23;98247.94;;;7.48;100.00
49311;BME280;35177;45.900;5.946;2022-10-19T04:48:50;98253.75;;;7.41;100.00
49311;BME280;35177;45.900;5.946;2022-10-19T04:51:16;98251.53;;;7.53;100.00
49311;BME280;35177;45.900;5.946;2022-10-19T04:53:43;98258.94;;;7.58;100.00
49311;BME280;35177;45.900;5.946;2022-10-19T04:56:17;98261.91;;;7.87;100.00
49311;BME280;35177;45.900;5.946;2022-10-19T04:58:44;98253.03;;;8.01;100.00
49311;BME280;35177;45.900;5.946;2022-10-19T05:01:11;98252.50;;;7.99;100.00
49311;BME280;35177;45.900;5.946;2022-10-19T05:03:38;98246.97;;;7.99;100.00
49311;BME280;35177;45.900;5.946;2022-10-19T05:06:05;98248.59;;;8.05;100.00
49311;BME280;35177;45.900;5.946;2022-10-19T05:08:31;98250.53;;;8.04;100.00
49311;BME280;35177;45.900;5.946;2022-10-19T05:11:04;98253.31;;;7.99;100.00
49311;BME280;35177;45.900;5.946;2022-10-19T05:13:31;98250.31;;;7.91;100.00
49311;BME280;35177;45.900;5.946;2022-10-19T05:15:58;98243.13;;;7.90;100.00
49311;BME280;35177;45.900;5.946;2022-10-19T05:18:25;98250.03;;;7.87;100.00
49311;BME280;35177;45.900;5.946;2022-10-19T05:20:50;98247.84;;;7.79;100.00
49311;BME280;35177;45.900;5.946;2022-10-19T05:23:16;98255.59;;;7.71;100.00
49311;BME280;35177;45.900;5.946;2022-10-19T05:25:42;98249.28;;;7.66;100.00
49311;BME280;35177;45.900;5.946;2022-10-19T05:28:07;98252.84;;;7.71;100.00
49311;BME280;35177;45.900;5.946;2022-10-19T05:30:33;98249.81;;;7.63;100.00
49311;BME280;35177;45.900;5.946;2022-10-19T05:32:58;98247.91;;;7.63;100.00
49311;BME280;35177;45.900;5.946;2022-10-19T05:35:24;98253.19;;;7.44;100.00
49311;BME280;35177;45.900;5.946;2022-10-19T05:37:55;98248.78;;;7.28;100.00
49311;BME280;35177;45.900;5.946;2022-10-19T05:40:20;98249.34;;;7.24;100.00
49311;BME280;35177;45.900;5.946;2022-10-19T05:42:46;98249.91;;;7.21;100.00
49311;BME280;35177;45.900;5.946;2022-10-19T05:45:11;98249.06;;;7.16;100.00
49311;BME280;35177;45.900;5.946;2022-10-19T05:47:37;98246.31;;;7.11;100.00
49311;BME280;35177;45.900;5.946;2022-10-19T05:50:02;98237.47;;;7.08;100.00
49311;BME280;35177;45.900;5.946;2022-10-19T05:52:28;98233.59;;;7.15;100.00
49311;BME280;35177;45.900;5.946;2022-10-19T05:54:54;98228.09;;;6.99;100.00
49311;BME280;35177;45.900;5.946;2022-10-19T05:57:20;98233.06;;;7.07;100.00
49311;BME280;35177;45.900;5.946;2022-10-19T05:59:46;98225.34;;;7.04;100.00
49311;BME280;35177;45.900;5.946;2022-10-19T06:02:12;98233.59;;;7.25;100.00
49311;BME280;35177;45.900;5.946;2022-10-19T06:04:38;98230.28;;;7.28;100.00
49311;BME280;35177;45.900;5.946;2022-10-19T06:07:03;98229.72;;;7.36;100.00
49311;BME280;35177;45.900;5.946;2022-10-19T06:09:29;98235.78;;;7.33;100.00
49311;BME280;35177;45.900;5.946;2022-10-19T06:12:00;98226.41;;;7.34;100.00
49311;BME280;35177;45.900;5.946;2022-10-19T06:14:26;98220.34;;;7.27;100.00
49311;BME280;35177;45.900;5.946;2022-10-19T06:16:51;98228.63;;;7.37;100.00
49311;BME280;35177;45.900;5.946;2022-10-19T06:19:17;98221.69;;;7.45;100.00
49311;BME280;35177;45.900;5.946;2022-10-19T06:21:43;98223.88;;;7.48;100.00
49311;BME280;35177;45.900;5.946;2022-10-19T06:24:10;98216.97;;;7.51;100.00
49311;BME280;35177;45.900;5.946;2022-10-19T06:26:35;98219.44;;;7.63;100.00
49311;BME280;35177;45.900;5.946;2022-10-19T06:29:02;98216.91;;;7.77;100.00
49311;BME280;35177;45.900;5.946;2022-10-19T06:31:30;98218.03;;;7.76;100.00
49311;BME280;35177;45.900;5.946;2022-10-19T06:33:56;98217.47;;;7.74;100.00
49311;BME280;35177;45.900;5.946;2022-10-19T06:36:24;98223.56;;;7.76;100.00
49311;BME280;35177;45.900;5.946;2022-10-19T06:38:50;98223.47;;;7.91;100.00
49311;BME280;35177;45.900;5.946;2022-10-19T06:41:17;98220.97;;;7.95;100.00
49311;BME280;35177;45.900;5.946;2022-10-19T06:43:43;98220.97;;;8.00;100.00
49311;BME280;35177;45.900;5.946;2022-10-19T06:46:13;98219.25;;;8.14;100.00
49311;BME280;35177;45.900;5.946;2022-10-19T06:48:41;98217.25;;;8.25;100.00
49311;BME280;35177;45.900;5.946;2022-10-19T06:51:07;98214.16;;;8.37;100.00
49311;BME280;35177;45.900;5.946;2022-10-19T06:53:34;98212.72;;;8.50;100.00
49311;BME280;35177;45.900;5.946;2022-10-19T06:56:02;98207.19;;;8.50;100.00
49311;BME280;35177;45.900;5.946;2022-10-19T06:58:28;98211.66;;;8.80;100.00
49311;BME280;35177;45.900;5.946;2022-10-19T07:00:58;98212.81;;;9.09;100.00
49311;BME280;35177;45.900;5.946;2022-10-19T07:03:25;98214.91;;;9.22;100.00
49311;BME280;35177;45.900;5.946;2022-10-19T07:05:55;98210.16;;;9.28;100.00
49311;BME280;35177;45.900;5.946;2022-10-19T07:08:23;98210.06;;;9.38;100.00
49311;BME280;35177;45.900;5.946;2022-10-19T07:10:53;98210.28;;;9.42;100.00
49311;BME280;35177;45.900;5.946;2022-10-19T07:13:19;98216.72;;;9.37;100.00
49311;BME280;35177;45.900;5.946;2022-10-19T07:15:44;98209.66;;;9.50;100.00
49311;BME280;35177;45.900;5.946;2022-10-19T07:18:10;98214.22;;;9.65;100.00
49311;BME280;35177;45.900;5.946;2022-10-19T07:20:35;98217.72;;;9.71;100.00
49311;BME280;35177;45.900;5.946;2022-10-19T07:23:01;98205.03;;;9.70;100.00
49311;BME280;35177;45.900;5.946;2022-10-19T07:25:27;98209.91;;;9.78;100.00
49311;BME280;35177;45.900;5.946;2022-10-19T07:27:52;98193.66;;;9.90;100.00
49311;BME280;35177;45.900;5.946;2022-10-19T07:30:18;98209.66;;;9.99;100.00
49311;BME280;35177;45.900;5.946;2022-10-19T07:32:44;98205.34;;;10.11;100.00
49311;BME280;35177;45.900;5.946;2022-10-19T07:35:10;98204.81;;;10.09;100.00
49311;BME280;35177;45.900;5.946;2022-10-19T07:37:35;98205.53;;;10.15;100.00
49311;BME280;35177;45.900;5.946;2022-10-19T07:40:01;98203.31;;;10.17;100.00
49311;BME280;35177;45.900;5.946;2022-10-19T07:42:27;98210.28;;;10.39;100.00
49311;BME280;35177;45.900;5.946;2022-10-19T07:44:54;98215.66;;;10.49;100.00
49311;BME280;35177;45.900;5.946;2022-10-19T07:47:20;98207.72;;;10.61;100.00
49311;BME280;35177;45.900;5.946;2022-10-19T07:49:45;98200.81;;;10.78;100.00
49311;BME280;35177;45.900;5.946;2022-10-19T07:52:11;98209.75;;;11.08;100.00
49311;BME280;35177;45.900;5.946;2022-10-19T07:54:36;98203.72;;;11.20;100.00
49311;BME280;35177;45.900;5.946;2022-10-19T07:57:02;98200.91;;;11.53;100.00
49311;BME280;35177;45.900;5.946;2022-10-19T07:59:27;98198.25;;;11.76;100.00
49311;BME280;35177;45.900;5.946;2022-10-19T08:01:53;98200.53;;;11.87;100.00
49311;BME280;35177;45.900;5.946;2022-10-19T08:04:20;98200.72;;;11.91;100.00
49311;BME280;35177;45.900;5.946;2022-10-19T08:06:45;98189.28;;;11.93;100.00
49311;BME280;35177;45.900;5.946;2022-10-19T08:09:11;98194.22;;;11.96;100.00
49311;BME280;35177;45.900;5.946;2022-10-19T08:11:36;98189.63;;;12.05;100.00
49311;BME280;35177;45.900;5.946;2022-10-19T08:14:02;98189.22;;;11.98;100.00
49311;BME280;35177;45.900;5.946;2022-10-19T08:16:34;98190.56;;;12.14;100.00
49311;BME280;35177;45.900;5.946;2022-10-19T08:19:06;98181.69;;;12.12;100.00
49311;BME280;35177;45.900;5.946;2022-10-19T08:21:33;98178.47;;;12.19;100.00
49311;BME280;35177;45.900;5.946;2022-10-19T08:23:59;98171.56;;;12.16;100.00
49311;BME280;35177;45.900;5.946;2022-10-19T08:26:27;98168.25;;;12.28;100.00
49311;BME280;35177;45.900;5.946;2022-10-19T08:29:00;98164.00;;;12.31;100.00
49311;BME280;35177;45.900;5.946;2022-10-19T08:31:26;98152.53;;;12.46;100.00
49311;BME280;35177;45.900;5.946;2022-10-19T08:33:52;98155.53;;;12.50;100.00
49311;BME280;35177;45.900;5.946;2022-10-19T08:36:18;98149.34;;;12.76;100.00
49311;BME280;35177;45.900;5.946;2022-10-19T08:38:47;98155.41;;;12.78;100.00
49311;BME280;35177;45.900;5.946;2022-10-19T08:44:02;98156.72;;;13.03;100.00
49311;BME280;35177;45.900;5.946;2022-10-19T08:49:17;98154.41;;;13.28;100.00
49311;BME280;35177;45.900;5.946;2022-10-19T08:51:47;98153.47;;;13.32;100.00
49311;BME280;35177;45.900;5.946;2022-10-19T08:54:16;98159.72;;;13.38;100.00
49311;BME280;35177;45.900;5.946;2022-10-19T09:00:46;98137.56;;;13.64;100.00
49311;BME280;35177;45.900;5.946;2022-10-19T09:03:12;98139.75;;;13.85;100.00
49311;BME280;35177;45.900;5.946;2022-10-19T09:05:47;98126.00;;;13.89;100.00
49311;BME280;35177;45.900;5.946;2022-10-19T09:08:18;98135.25;;;14.33;100.00
49311;BME280;35177;45.900;5.946;2022-10-19T09:10:46;98128.19;;;14.80;100.00
49311;BME280;35177;45.900;5.946;2022-10-19T09:13:36;98122.22;;;15.16;100.00
49311;BME280;35177;45.900;5.946;2022-10-19T09:16:04;98115.22;;;15.79;100.00
49311;BME280;35177;45.900;5.946;2022-10-19T09:18:33;98111.72;;;16.42;100.00
49311;BME280;35177;45.900;5.946;2022-10-19T09:21:08;98103.25;;;16.72;100.00
49311;BME280;35177;45.900;5.946;2022-10-19T09:23:38;98105.25;;;16.83;100.00
49311;BME280;35177;45.900;5.946;2022-10-19T09:26:20;98104.31;;;17.59;100.00
49311;BME280;35177;45.900;5.946;2022-10-19T09:29:09;98107.34;;;18.16;100.00
49311;BME280;35177;45.900;5.946;2022-10-19T09:31:41;98105.19;;;18.37;100.00
49311;BME280;35177;45.900;5.946;2022-10-19T09:34:24;98106.00;;;18.78;100.00
49311;BME280;35177;45.900;5.946;2022-10-19T09:36:55;98108.53;;;18.55;100.00
49311;BME280;35177;45.900;5.946;2022-10-19T09:39:23;98107.53;;;18.76;100.00
49311;BME280;35177;45.900;5.946;2022-10-19T09:44:17;98103.03;;;19.16;100.00
49311;BME280;35177;45.900;5.946;2022-10-19T09:49:19;98102.47;;;19.86;100.00
49311;BME280;35177;45.900;5.946;2022-10-19T09:52:02;98108.94;;;20.22;100.00
49311;BME280;35177;45.900;5.946;2022-10-19T09:54:36;98096.59;;;20.47;100.00
49311;BME280;35177;45.900;5.946;2022-10-19T09:57:03;98087.97;;;20.75;100.00
49311;BME280;35177;45.900;5.946;2022-10-19T09:59:33;98094.97;;;20.65;100.00
49311;BME280;35177;45.900;5.946;2022-10-19T10:02:16;98092.25;;;20.89;100.00
49311;BME280;35177;45.900;5.946;2022-10-19T10:07:41;98091.53;;;20.56;100.00
49311;BME280;35177;45.900;5.946;2022-10-19T10:10:34;98095.88;;;20.89;100.00
49311;BME280;35177;45.900;5.946;2022-10-19T10:13:01;98084.81;;;21.43;100.00
49311;BME280;35177;45.900;5.946;2022-10-19T10:15:42;98081.41;;;21.33;100.00
49311;BME280;35177;45.900;5.946;2022-10-19T10:18:15;98072.59;;;21.58;100.00
49311;BME280;35177;45.900;5.946;2022-10-19T10:23:32;98071.59;;;21.27;100.00
49311;BME280;35177;45.900;5.946;2022-10-19T10:26:01;98072.03;;;20.47;100.00
49311;BME280;35177;45.900;5.946;2022-10-19T10:28:28;98074.66;;;20.76;100.00
49311;BME280;35177;45.900;5.946;2022-10-19T10:33:26;98071.28;;;20.31;100.00
49311;BME280;35177;45.900;5.946;2022-10-19T10:36:01;98066.31;;;20.63;100.00
49311;BME280;35177;45.900;5.946;2022-10-19T10:38:32;98063.47;;;20.24;100.00
49311;BME280;35177;45.900;5.946;2022-10-19T10:41:15;98055.25;;;20.35;100.00
49311;BME280;35177;45.900;5.946;2022-10-19T10:44:00;98048.81;;;20.54;100.00
49311;BME280;35177;45.900;5.946;2022-10-19T10:46:33;98052.22;;;20.63;100.00
49311;BME280;35177;45.900;5.946;2022-10-19T10:49:03;98049.78;;;20.62;100.00
49311;BME280;35177;45.900;5.946;2022-10-19T10:54:14;98043.31;;;21.00;100.00
49311;BME280;35177;45.900;5.946;2022-10-19T10:56:42;98040.50;;;21.00;100.00
49311;BME280;35177;45.900;5.946;2022-10-19T10:59:15;98035.03;;;21.34;100.00
49311;BME280;35177;45.900;5.946;2022-10-19T11:04:22;98025.69;;;21.77;100.00
49311;BME280;35177;45.900;5.946;2022-10-19T11:06:56;98019.44;;;22.21;100.00
49311;BME280;35177;45.900;5.946;2022-10-19T11:09:41;98013.66;;;21.83;100.00
49311;BME280;35177;45.900;5.946;2022-10-19T11:12:12;98006.47;;;21.63;100.00
49311;BME280;35177;45.900;5.946;2022-10-19T11:14:45;97999.91;;;22.09;100.00
49311;BME280;35177;45.900;5.946;2022-10-19T11:17:25;97992.31;;;22.17;100.00
49311;BME280;35177;45.900;5.946;2022-10-19T11:19:52;97990.47;;;22.01;100.00
49311;BME280;35177;45.900;5.946;2022-10-19T11:22:27;97992.47;;;21.70;100.00
49311;BME280;35177;45.900;5.946;2022-10-19T11:25:33;97976.69;;;21.42;100.00
49311;BME280;35177;45.900;5.946;2022-10-19T11:28:27;97971.34;;;21.37;100.00
49311;BME280;35177;45.900;5.946;2022-10-19T11:33:36;97967.38;;;21.65;100.00
49311;BME280;35177;45.900;5.946;2022-10-19T12:00:49;97941.66;;;20.74;100.00
49311;BME280;35177;45.900;5.946;2022-10-19T12:06:20;97930.56;;;20.42;100.00
49311;BME280;35177;45.900;5.946;2022-10-19T12:09:01;97929.47;;;20.27;100.00
49311;BME280;35177;45.900;5.946;2022-10-19T12:14:17;97916.63;;;20.72;100.00
49311;BME280;35177;45.900;5.946;2022-10-19T12:16:47;97908.94;;;20.92;100.00
49311;BME280;35177;45.900;5.946;2022-10-19T12:19:21;97914.00;;;20.63;100.00
49311;BME280;35177;45.900;5.946;2022-10-19T12:21:49;97918.66;;;20.52;100.00
49311;BME280;35177;45.900;5.946;2022-10-19T12:24:25;97905.34;;;20.29;100.00
49311;BME280;35177;45.900;5.946;2022-10-19T12:26:53;97905.50;;;20.17;100.00
49311;BME280;35177;45.900;5.946;2022-10-19T12:29:23;97900.69;;;19.98;100.00
49311;BME280;35177;45.900;5.946;2022-10-19T12:31:51;97909.13;;;19.98;100.00
49311;BME280;35177;45.900;5.946;2022-10-19T12:34:35;97894.59;;;20.15;100.00
49311;BME280;35177;45.900;5.946;2022-10-19T12:37:10;97894.59;;;20.58;100.00
49311;BME280;35177;45.900;5.946;2022-10-19T12:40:01;97895.88;;;20.84;100.00
49311;BME280;35177;45.900;5.946;2022-10-19T12:47:32;97888.84;;;20.97;100.00
49311;BME280;35177;45.900;5.946;2022-10-19T12:49:58;97888.59;;;20.83;100.00
49311;BME280;35177;45.900;5.946;2022-10-19T12:52:43;97882.22;;;20.86;100.00
49311;BME280;35177;45.900;5.946;2022-10-19T12:57:56;97883.34;;;20.38;100.00
49311;BME280;35177;45.900;5.946;2022-10-19T13:00:24;97867.94;;;20.75;100.00
49311;BME280;35177;45.900;5.946;2022-10-19T13:05:29;97871.53;;;21.26;100.00
49311;BME280;35177;45.900;5.946;2022-10-19T13:07:56;97870.63;;;20.91;100.00
49311;BME280;35177;45.900;5.946;2022-10-19T13:10:24;97860.72;;;20.78;100.00
49311;BME280;35177;45.900;5.946;2022-10-19T13:12:51;97855.63;;;20.87;100.00
49311;BME280;35177;45.900;5.946;2022-10-19T13:18:02;97850.59;;;21.00;100.00
49311;BME280;35177;45.900;5.946;2022-10-19T13:25:31;97837.66;;;20.99;100.00
49311;BME280;35177;45.900;5.946;2022-10-19T13:46:09;97809.25;;;20.84;100.00
49311;BME280;35177;45.900;5.946;2022-10-19T13:54:14;97813.78;;;20.69;100.00
49311;BME280;35177;45.900;5.946;2022-10-19T13:56:49;97809.81;;;20.47;100.00
49311;BME280;35177;45.900;5.946;2022-10-19T13:59:26;97798.84;;;20.65;100.00
49311;BME280;35177;45.900;5.946;2022-10-19T14:07:41;97790.38;;;20.89;100.00
49311;BME280;35177;45.900;5.946;2022-10-19T14:10:15;97794.44;;;20.91;100.00
49311;BME280;35177;45.900;5.946;2022-10-19T14:12:42;97781.03;;;20.84;100.00
49311;BME280;35177;45.900;5.946;2022-10-19T14:15:29;97786.56;;;20.77;100.00
49311;BME280;35177;45.900;5.946;2022-10-19T14:17:56;97777.50;;;20.68;100.00
49311;BME280;35177;45.900;5.946;2022-10-19T14:20:31;97782.72;;;20.66;100.00
49311;BME280;35177;45.900;5.946;2022-10-19T14:23:00;97780.94;;;20.54;100.00
49311;BME280;35177;45.900;5.946;2022-10-19T14:25:51;97777.72;;;20.55;100.00
49311;BME280;35177;45.900;5.946;2022-10-19T14:28:18;97783.31;;;20.52;100.00
49311;BME280;35177;45.900;5.946;2022-10-19T14:30:54;97781.59;;;20.47;100.00
49311;BME280;35177;45.900;5.946;2022-10-19T14:33:20;97779.88;;;20.39;100.00
49311;BME280;35177;45.900;5.946;2022-10-19T14:35:48;97776.34;;;20.22;100.00
49311;BME280;35177;45.900;5.946;2022-10-19T14:38:21;97781.50;;;20.17;100.00
49311;BME280;35177;45.900;5.946;2022-10-19T14:40:48;97776.84;;;20.05;100.00
49311;BME280;35177;45.900;5.946;2022-10-19T14:43:23;97777.84;;;19.93;100.00
49311;BME280;35177;45.900;5.946;2022-10-19T14:48:31;97771.03;;;19.74;100.00
49311;BME280;35177;45.900;5.946;2022-10-19T14:50:57;97766.16;;;19.71;100.00
49311;BME280;35177;45.900;5.946;2022-10-19T14:53:31;97768.59;;;19.73;100.00
49311;BME280;35177;45.900;5.946;2022-10-19T14:56:05;97758.56;;;19.75;100.00
49311;BME280;35177;45.900;5.946;2022-10-19T14:58:40;97756.88;;;19.71;100.00
49311;BME280;35177;45.900;5.946;2022-10-19T15:01:09;97754.50;;;19.73;100.00
49311;BME280;35177;45.900;5.946;2022-10-19T15:03:40;97754.13;;;19.74;100.00
49311;BME280;35177;45.900;5.946;2022-10-19T15:06:06;97750.94;;;19.76;100.00
49311;BME280;35177;45.900;5.946;2022-10-19T15:08:39;97748.28;;;19.83;100.00
49311;BME280;35177;45.900;5.946;2022-10-19T15:11:21;97739.66;;;19.76;100.00